Time;durP1;ratioP1;P1;durP2;ratioP2;P2;SDS_P1;SDS_P2;PMS_P1;PMS_P2;Temp;Humidity;BMP_temperature;BMP_pressure;BME280_temperature;BME280_humidity;BME280_pressure;Samples;Min_cycle;Max_cycle;Signal;HPM_P1;HPM_P2
2022/03/24 00:02:13;;;;;;;52.22;25.73;;;;;;;4.34;44.84;103042.19;5040103;28;20060;-81
2022/03/24 00:04:39;;;;;;;59.60;29.25;;;;;;;4.29;45.18;103041.19;5021393;28;20071;-78
2022/03/24 00:07:05;;;;;;;48.88;25.25;;;;;;;4.32;44.99;103036.09;5017365;28;20238;-80
2022/03/24 00:09:31;;;;;;;60.20;27.05;;;;;;;4.32;45.14;103045.56;5042584;28;20036;-78
2022/03/24 00:11:56;;;;;;;55.13;26.63;;;;;;;4.29;44.98;103041.19;5027834;28;20479;-80
2022/03/24 00:14:22;;;;;;;57.03;26.88;;;;;;;4.28;45.03;103034.28;5047808;28;20444;-78
2022/03/24 00:16:48;;;;;;;56.45;27.55;;;;;;;4.29;44.99;103036.00;5047657;28;20037;-80
2022/03/24 00:19:16;;;;;;;57.65;27.63;;;;;;;4.21;45.25;103035.00;5028463;28;20406;-80
2022/03/24 00:21:43;;;;;;;52.33;26.50;;;;;;;4.20;45.36;103033.22;5026556;28;20037;-78
2022/03/24 00:24:08;;;;;;;52.65;28.13;;;;;;;4.16;45.45;103026.25;5042906;28;20148;-79
2022/03/24 00:26:34;;;;;;;53.20;25.77;;;;;;;4.13;45.49;103029.66;5029356;28;20090;-77
2022/03/24 00:29:01;;;;;;;55.97;28.00;;;;;;;4.09;45.49;103034.72;5043476;28;20395;-79
2022/03/24 00:31:27;;;;;;;53.50;27.50;;;;;;;4.08;45.50;103023.50;5027698;28;20029;-78
2022/03/24 00:33:53;;;;;;;59.10;28.00;;;;;;;4.06;45.61;103029.50;5030776;28;20086;-79
2022/03/24 00:36:20;;;;;;;65.88;27.73;;;;;;;4.04;45.71;103028.59;5042933;28;20039;-80
2022/03/24 00:38:46;;;;;;;51.90;24.55;;;;;;;4.05;45.72;103027.72;5040882;28;20322;-78
2022/03/24 00:41:13;;;;;;;54.72;26.42;;;;;;;4.06;45.43;103032.06;5044881;28;20028;-79
2022/03/24 00:43:39;;;;;;;55.92;27.77;;;;;;;4.05;45.60;103020.88;5025114;28;20355;-75
2022/03/24 00:46:05;;;;;;;56.60;26.02;;;;;;;4.00;45.68;103031.09;5025835;28;20052;-79
2022/03/24 00:48:31;;;;;;;53.92;24.90;;;;;;;3.93;45.81;103024.03;5041388;28;20029;-78
2022/03/24 00:50:56;;;;;;;50.15;26.98;;;;;;;3.92;45.95;103024.88;5003757;28;21936;-79
2022/03/24 00:53:23;;;;;;;55.05;25.95;;;;;;;3.88;46.09;103020.47;5041796;28;20411;-78
2022/03/24 00:55:51;;;;;;;49.65;27.35;;;;;;;3.83;46.09;103024.69;5025150;28;20251;-77
2022/03/24 00:58:16;;;;;;;53.42;26.63;;;;;;;3.82;46.21;103028.09;5044050;28;20049;-78
2022/03/24 01:00:42;;;;;;;50.60;24.73;;;;;;;3.80;45.82;103022.88;5045488;28;20025;-79
2022/03/24 01:03:09;;;;;;;59.42;27.25;;;;;;;3.75;46.06;103016.72;5042632;28;20114;-79
2022/03/24 01:05:37;;;;;;;55.70;25.95;;;;;;;3.75;46.10;103021.03;5043519;28;20063;-79
2022/03/24 01:08:05;;;;;;;50.08;25.73;;;;;;;3.74;46.21;103015.00;5019042;28;20573;-79
2022/03/24 01:10:31;;;;;;;57.90;27.23;;;;;;;3.68;46.28;103020.03;5043507;28;20108;-78
2022/03/24 01:12:59;;;;;;;53.35;25.70;;;;;;;3.67;46.32;103017.38;5043409;28;20091;-78
2022/03/24 01:15:27;;;;;;;56.35;26.73;;;;;;;3.65;46.40;103017.38;5025934;28;20098;-79
2022/03/24 01:18:00;;;;;;;55.78;26.10;;;;;;;3.65;46.37;103013.88;5039880;28;20452;-78
2022/03/24 01:20:28;;;;;;;60.38;27.10;;;;;;;3.57;46.58;103016.31;5043948;28;20025;-78
2022/03/24 01:22:55;;;;;;;51.92;23.80;;;;;;;3.58;46.54;103013.78;4999385;28;20064;-77
2022/03/24 01:25:23;;;;;;;54.85;25.75;;;;;;;3.66;46.40;103007.91;5025739;28;20068;-77
2022/03/24 01:27:50;;;;;;;51.25;25.45;;;;;;;3.54;46.53;103011.09;5023598;28;20529;-79
2022/03/24 01:30:17;;;;;;;56.47;25.15;;;;;;;3.49;46.67;103012.66;5042997;28;20045;-80
2022/03/24 01:32:45;;;;;;;55.80;25.90;;;;;;;3.47;46.92;103017.81;5046932;28;20098;-78
2022/03/24 01:35:11;;;;;;;56.40;28.98;;;;;;;3.47;46.87;103012.66;5042783;28;20045;-78
2022/03/24 01:37:37;;;;;;;55.70;26.73;;;;;;;3.45;46.79;103011.72;5045744;28;20072;-79
2022/03/24 01:40:09;;;;;;;52.47;25.73;;;;;;;3.45;46.76;103006.56;5046185;28;20016;-80
2022/03/24 01:42:37;;;;;;;51.60;26.27;;;;;;;3.39;46.79;103004.69;5042561;28;20044;-77
2022/03/24 01:45:04;;;;;;;63.67;27.33;;;;;;;3.34;47.05;102998.53;5024983;28;20033;-78
2022/03/24 01:47:30;;;;;;;60.58;27.67;;;;;;;3.26;47.26;103001.75;5026322;28;20049;-78
2022/03/24 01:49:58;;;;;;;55.97;26.80;;;;;;;3.24;47.29;102990.47;5023468;28;20094;-80
2022/03/24 01:52:25;;;;;;;64.72;28.88;;;;;;;3.26;47.40;103000.03;5025173;28;20580;-78
2022/03/24 01:54:57;;;;;;;52.90;27.23;;;;;;;3.28;47.47;102992.31;5040662;28;20030;-79
2022/03/24 01:57:25;;;;;;;52.50;25.52;;;;;;;3.28;47.30;102989.72;5042972;28;20029;-77
2022/03/24 01:59:51;;;;;;;57.95;27.25;;;;;;;3.27;47.40;102995.72;5047735;28;21405;-74
2022/03/24 02:02:16;;;;;;;53.85;26.92;;;;;;;3.25;47.32;102987.06;5042827;28;20055;-79
2022/03/24 02:04:43;;;;;;;56.75;27.23;;;;;;;3.14;47.43;102998.00;5047066;28;20033;-80
2022/03/24 02:07:13;;;;;;;59.05;29.67;;;;;;;3.14;47.48;102991.97;5023392;28;20546;-80
2022/03/24 02:09:39;;;;;;;53.25;25.90;;;;;;;3.12;47.58;102988.47;5025655;28;20056;-81
2022/03/24 02:12:12;;;;;;;55.00;26.50;;;;;;;3.09;47.58;102978.03;5024340;28;20252;-78
2022/03/24 02:14:39;;;;;;;65.75;30.45;;;;;;;3.00;47.65;102986.44;5024244;28;20057;-78
2022/03/24 02:17:05;;;;;;;56.13;27.70;;;;;;;3.07;47.57;102988.38;5023962;28;20033;-79
2022/03/24 02:19:31;;;;;;;57.63;26.92;;;;;;;3.07;47.51;102987.47;5042050;28;20466;-78
2022/03/24 02:22:11;;;;;;;59.25;27.05;;;;;;;3.05;47.68;102982.28;5017321;28;20152;-79
2022/03/24 02:24:37;;;;;;;54.72;27.80;;;;;;;3.03;47.65;102981.38;5022241;28;20314;-79
2022/03/24 02:27:03;;;;;;;54.33;26.27;;;;;;;2.99;47.61;102979.53;5040197;28;20036;-79
2022/03/24 02:29:28;;;;;;;54.40;26.27;;;;;;;3.02;47.65;102976.16;5045323;28;20033;-78
2022/03/24 02:31:54;;;;;;;54.30;26.05;;;;;;;3.02;47.51;102977.03;5039676;28;20037;-77
2022/03/24 02:37:13;;;;;;;55.10;25.48;;;;;;;2.91;47.88;102976.78;5020631;28;20165;-78
2022/03/24 02:39:44;;;;;;;56.25;25.52;;;;;;;2.91;47.59;102976.78;5041361;28;20099;-77
2022/03/24 02:42:15;;;;;;;50.63;26.53;;;;;;;2.87;47.84;102974.06;5004680;28;20251;-80
2022/03/24 02:44:46;;;;;;;55.65;25.75;;;;;;;2.85;47.89;102975.75;5040835;28;20099;-78
2022/03/24 02:47:13;;;;;;;54.30;27.30;;;;;;;2.81;47.92;102969.59;5022934;28;20060;-80
2022/03/24 02:49:40;;;;;;;55.50;25.85;;;;;;;2.74;48.07;102972.88;5028340;28;20317;-80
2022/03/24 02:52:06;;;;;;;54.17;25.67;;;;;;;2.67;48.27;102969.25;5039928;28;20176;-78
2022/03/24 02:54:32;;;;;;;57.53;26.65;;;;;;;2.66;48.37;102959.75;5041503;28;20032;-80
2022/03/24 02:56:58;;;;;;;58.88;26.20;;;;;;;2.67;48.18;102968.38;5022903;28;20042;-81
2022/03/24 02:59:24;;;;;;;59.75;28.73;;;;;;;2.65;48.26;102968.34;5024953;28;20043;-81
2022/03/24 03:02:01;;;;;;;58.60;26.77;;;;;;;2.66;48.40;102967.47;5027951;28;20024;-80
2022/03/24 03:04:29;;;;;;;61.45;28.35;;;;;;;2.57;48.27;102965.53;5046752;28;20029;-80
2022/03/24 03:06:55;;;;;;;63.13;29.02;;;;;;;2.44;48.49;102967.75;5038823;28;20037;-78
2022/03/24 03:09:24;;;;;;;51.33;23.88;;;;;;;2.50;48.46;102955.88;5040540;28;20036;-80
2022/03/24 03:11:51;;;;;;;59.47;26.33;;;;;;;2.49;48.36;102958.44;5040685;28;20375;-78
2022/03/24 03:14:17;;;;;;;58.15;26.02;;;;;;;2.52;48.41;102958.50;5043176;28;20437;-78
2022/03/24 03:16:44;;;;;;;51.63;25.25;;;;;;;2.54;48.25;102965.47;5043645;28;20048;-80
2022/03/24 03:19:14;;;;;;;57.38;27.38;;;;;;;2.49;48.39;102971.34;5039971;28;20379;-79
2022/03/24 03:21:40;;;;;;;54.55;24.48;;;;;;;2.46;48.47;102963.50;5041644;28;20032;-80
2022/03/24 03:24:08;;;;;;;56.30;26.88;;;;;;;2.49;48.27;102961.88;5040113;28;20078;-79
2022/03/24 03:26:34;;;;;;;54.17;25.40;;;;;;;2.38;48.42;102958.13;5040943;28;20045;-77
2022/03/24 03:29:00;;;;;;;49.92;24.10;;;;;;;2.40;48.61;102964.22;5039685;28;20047;-80
2022/03/24 03:31:28;;;;;;;49.60;24.85;;;;;;;2.43;48.46;102955.69;5046123;28;20082;-78
2022/03/24 03:33:54;;;;;;;53.78;25.35;;;;;;;2.43;48.28;102968.59;5023240;28;20064;-78
2022/03/24 03:36:21;;;;;;;46.63;23.48;;;;;;;2.34;48.27;102967.50;5041682;28;20033;-79
2022/03/24 03:38:47;;;;;;;57.80;25.38;;;;;;;2.31;48.41;102963.94;5038403;28;20084;-80
2022/03/24 03:41:14;;;;;;;56.10;24.85;;;;;;;2.28;48.29;102958.72;5038874;28;20029;-79
2022/03/24 03:43:44;;;;;;;56.35;25.50;;;;;;;2.37;48.27;102965.84;5041690;28;20049;-78
2022/03/24 03:46:10;;;;;;;45.55;22.17;;;;;;;2.38;48.11;102964.97;5021934;28;20028;-79
2022/03/24 03:48:39;;;;;;;53.53;27.48;;;;;;;2.31;48.20;102967.41;5005328;28;20122;-80
2022/03/24 03:51:06;;;;;;;53.08;24.60;;;;;;;2.31;48.27;102958.78;5043194;28;20541;-78
2022/03/24 03:53:33;;;;;;;58.95;28.33;;;;;;;2.22;48.46;102961.09;5018668;28;20063;-79
2022/03/24 03:55:59;;;;;;;62.28;26.77;;;;;;;2.18;48.67;102955.00;5020268;28;20574;-77
2022/03/24 03:58:25;;;;;;;53.45;24.77;;;;;;;2.17;48.56;102958.41;5022187;28;20049;-79
2022/03/24 04:00:55;;;;;;;61.45;28.10;;;;;;;2.11;48.78;102959.13;5022998;28;20456;-79
2022/03/24 04:03:26;;;;;;;59.90;26.50;;;;;;;2.17;48.68;102958.41;5039710;28;20053;-79
2022/03/24 04:05:53;;;;;;;55.70;23.83;;;;;;;2.19;48.34;102956.75;5038417;28;20036;-80
2022/03/24 04:08:20;;;;;;;56.00;26.50;;;;;;;2.15;48.54;102954.91;5039841;28;20048;-80
2022/03/24 04:10:46;;;;;;;59.67;28.88;;;;;;;2.12;48.71;102954.81;5038064;28;20056;-78
2022/03/24 04:13:11;;;;;;;53.80;25.38;;;;;;;2.09;48.84;102957.31;5038134;28;20369;-78
2022/03/24 04:15:38;;;;;;;55.47;25.92;;;;;;;2.07;48.70;102961.56;5039755;28;20037;-78
2022/03/24 04:18:05;;;;;;;57.25;27.67;;;;;;;1.93;48.94;102964.63;5038770;28;20033;-80
2022/03/24 04:20:30;;;;;;;54.75;25.83;;;;;;;2.07;48.66;102967.59;5044837;28;20147;-80
2022/03/24 04:23:00;;;;;;;53.55;24.90;;;;;;;2.00;48.68;102967.34;5022012;28;20140;-78
2022/03/24 04:25:26;;;;;;;55.15;24.90;;;;;;;2.02;48.69;102963.09;5019265;28;20201;-80
2022/03/24 04:27:52;;;;;;;59.33;25.02;;;;;;;2.03;48.76;102955.44;5036954;28;20616;-80
2022/03/24 04:30:18;;;;;;;54.13;26.50;;;;;;;2.02;48.75;102960.53;5046375;28;20033;-80
2022/03/24 04:32:44;;;;;;;54.95;26.92;;;;;;;2.02;48.77;102957.94;5020992;28;20059;-77
2022/03/24 04:35:11;;;;;;;57.20;26.70;;;;;;;1.94;48.79;102948.28;5023755;28;20055;-78
2022/03/24 04:37:37;;;;;;;53.72;26.30;;;;;;;1.94;48.75;102958.59;5039634;28;20079;-79
2022/03/24 04:40:05;;;;;;;62.25;28.63;;;;;;;1.89;48.80;102956.75;5039506;28;20036;-80
2022/03/24 04:42:31;;;;;;;59.63;26.13;;;;;;;1.91;48.80;102962.81;5038542;28;20037;-76
2022/03/24 04:44:57;;;;;;;50.28;24.75;;;;;;;1.96;48.55;102962.94;5017363;28;20037;-78
2022/03/24 04:47:23;;;;;;;59.17;26.98;;;;;;;1.92;48.70;102962.84;5039019;28;20041;-78
2022/03/24 04:49:49;;;;;;;50.22;24.85;;;;;;;1.94;48.75;102966.34;5041513;28;20126;-80
2022/03/24 04:52:15;;;;;;;53.55;24.83;;;;;;;1.92;48.63;102960.25;5038661;28;20052;-79
2022/03/24 04:54:41;;;;;;;56.60;25.23;;;;;;;1.93;48.64;102962.03;5022288;28;20514;-80
2022/03/24 04:57:06;;;;;;;61.47;26.50;;;;;;;1.87;48.75;102954.09;5039258;28;20059;-80
2022/03/24 04:59:31;;;;;;;52.90;26.10;;;;;;;1.81;48.73;102960.78;5042831;28;20506;-80
2022/03/24 05:01:57;;;;;;;50.60;23.90;;;;;;;1.86;48.87;102962.69;5041467;28;20041;-78
2022/03/24 05:04:24;;;;;;;57.22;26.25;;;;;;;1.88;48.71;102954.97;5042440;28;20030;-79
2022/03/24 05:06:53;;;;;;;53.08;24.30;;;;;;;1.88;48.55;102960.13;5041782;28;20368;-80
2022/03/24 05:09:19;;;;;;;53.80;25.85;;;;;;;1.90;48.83;102959.34;5046198;28;20372;-79
2022/03/24 05:11:45;;;;;;;60.25;27.92;;;;;;;1.85;48.79;102967.78;5042071;28;20100;-77
2022/03/24 05:14:11;;;;;;;65.88;28.95;;;;;;;1.83;48.54;102954.84;5019397;28;20857;-82
2022/03/24 05:16:37;;;;;;;56.92;25.45;;;;;;;1.78;48.50;102961.56;5043579;28;20029;-77
2022/03/24 05:19:03;;;;;;;65.93;28.50;;;;;;;1.78;48.57;102965.88;5025514;28;20326;-79
2022/03/24 05:21:31;;;;;;;51.08;25.73;;;;;;;1.81;48.71;102959.06;5042829;28;20021;-78
2022/03/24 05:23:57;;;;;;;57.75;26.25;;;;;;;1.79;48.54;102960.72;5041128;28;20065;-79
2022/03/24 05:26:24;;;;;;;60.75;28.38;;;;;;;1.76;48.78;102963.22;5041757;28;20048;-79
2022/03/24 05:28:50;;;;;;;63.03;26.67;;;;;;;1.84;48.69;102958.28;5024690;28;20056;-81
2022/03/24 05:31:17;;;;;;;54.55;26.25;;;;;;;1.88;48.70;102957.56;5041911;28;20040;-79
2022/03/24 05:33:43;;;;;;;53.67;24.73;;;;;;;1.92;48.57;102957.69;5040427;28;20499;-80
2022/03/24 05:36:09;;;;;;;51.33;24.05;;;;;;;1.96;48.50;102962.94;5044869;28;20083;-78
2022/03/24 05:38:35;;;;;;;58.20;26.20;;;;;;;2.02;48.57;102964.00;5023875;28;20072;-81
2022/03/24 05:41:01;;;;;;;58.55;26.08;;;;;;;2.07;48.43;102957.28;5029605;28;20040;-80
2022/03/24 05:43:27;;;;;;;66.78;29.70;;;;;;;2.11;48.33;102961.69;5024152;28;20041;-80
2022/03/24 05:45:52;;;;;;;59.78;27.00;;;;;;;2.16;48.70;102961.81;5025674;28;20037;-78
2022/03/24 05:48:18;;;;;;;56.13;26.88;;;;;;;2.29;48.19;102963.06;5024234;28;20486;-76
2022/03/24 05:51:01;;;;;;;62.28;26.58;;;;;;;2.38;48.19;102960.72;5037880;28;20134;-80
2022/03/24 05:53:30;;;;;;;62.83;28.85;;;;;;;2.51;48.34;102959.31;5040077;28;20404;-79
2022/03/24 05:55:56;;;;;;;60.67;28.15;;;;;;;2.62;47.95;102962.19;5021556;28;20047;-80
2022/03/24 05:58:21;;;;;;;60.05;28.00;;;;;;;2.75;47.78;102962.56;5044074;28;20044;-79
2022/03/24 06:00:47;;;;;;;62.08;27.23;;;;;;;2.86;47.63;102961.97;5022965;28;20071;-80
2022/03/24 06:03:15;;;;;;;60.65;28.77;;;;;;;2.99;47.50;102958.88;5037075;28;20037;-77
2022/03/24 06:05:41;;;;;;;60.00;25.35;;;;;;;3.12;47.17;102957.47;5043257;28;20072;-78
2022/03/24 06:08:07;;;;;;;62.20;27.50;;;;;;;3.29;47.35;102963.97;5042332;28;20041;-78
2022/03/24 06:10:33;;;;;;;59.28;26.98;;;;;;;3.41;47.06;102967.69;5043679;28;20503;-80
2022/03/24 06:12:59;;;;;;;60.60;28.85;;;;;;;3.97;46.89;102971.50;5020851;28;20060;-80
2022/03/24 06:15:24;;;;;;;66.18;31.08;;;;;;;5.58;45.61;102960.56;5019543;28;20032;-79
2022/03/24 06:17:50;;;;;;;61.47;26.80;;;;;;;7.16;41.68;102960.63;5042132;28;20043;-81
2022/03/24 06:20:16;;;;;;;60.67;28.55;;;;;;;8.45;40.50;102954.34;5019940;28;20037;-81
2022/03/24 06:22:52;;;;;;;62.35;29.73;;;;;;;9.54;37.41;102956.06;5037455;28;20085;-80
2022/03/24 06:25:19;;;;;;;60.33;28.38;;;;;;;10.73;34.87;102957.28;5018877;28;20043;-80
2022/03/24 06:27:46;;;;;;;58.80;28.55;;;;;;;11.42;32.71;102961.94;5020000;28;20128;-79
2022/03/24 06:30:13;;;;;;;56.35;28.65;;;;;;;12.17;30.68;102962.81;5035268;28;20045;-79
2022/03/24 06:32:38;;;;;;;66.85;30.80;;;;;;;12.83;30.40;102967.09;5041181;28;20036;-79
2022/03/24 06:35:05;;;;;;;62.33;30.20;;;;;;;13.36;27.47;102966.19;5037200;28;20071;-81
2022/03/24 06:37:39;;;;;;;57.80;28.45;;;;;;;13.35;28.87;102967.97;5021518;28;20123;-79
2022/03/24 06:40:07;;;;;;;63.10;28.85;;;;;;;13.86;27.79;102970.50;5021175;28;20247;-80
2022/03/24 06:42:32;;;;;;;64.93;30.00;;;;;;;14.06;26.82;102966.59;5039544;28;20037;-80
2022/03/24 06:44:58;;;;;;;60.55;31.10;;;;;;;14.47;26.40;102972.72;5041791;28;20070;-80
2022/03/24 06:47:24;;;;;;;57.42;30.27;;;;;;;14.76;26.76;102972.88;5044585;28;20076;-80
2022/03/24 06:49:49;;;;;;;62.75;30.05;;;;;;;15.82;25.52;102968.34;5040871;28;20021;-80
2022/03/24 06:52:15;;;;;;;63.47;32.95;;;;;;;16.78;23.53;102968.06;5021949;28;20446;-81
2022/03/24 06:54:40;;;;;;;64.60;31.00;;;;;;;17.24;23.02;102961.16;5041323;28;20132;-82
2022/03/24 06:57:06;;;;;;;49.47;26.20;;;;;;;17.28;21.99;102967.22;5021861;28;20051;-82
2022/03/24 06:59:31;;;;;;;40.40;23.75;;;;;;;16.57;24.80;102968.72;5038129;28;20127;-81
2022/03/24 07:01:57;;;;;;;43.90;24.80;;;;;;;15.66;24.16;102965.28;5024122;28;20033;-80
2022/03/24 07:04:22;;;;;;;44.50;24.35;;;;;;;15.94;24.18;102966.22;5039126;28;20058;-79
2022/03/24 07:06:48;;;;;;;39.15;22.30;;;;;;;16.17;24.05;102962.03;5020779;28;20302;-79
2022/03/24 07:09:13;;;;;;;39.25;22.60;;;;;;;15.69;24.86;102966.06;5042256;28;20266;-79
2022/03/24 07:11:39;;;;;;;41.45;22.40;;;;;;;16.02;24.42;102971.31;5037713;28;20041;-80
2022/03/24 07:14:05;;;;;;;39.25;23.67;;;;;;;16.11;23.88;102965.75;5000046;28;20102;-79
2022/03/24 07:16:30;;;;;;;39.90;24.38;;;;;;;15.97;24.23;102962.63;5040211;28;20032;-79
2022/03/24 07:18:56;;;;;;;44.38;24.85;;;;;;;16.46;24.42;102970.84;5020334;28;20047;-80
2022/03/24 07:21:21;;;;;;;45.67;24.65;;;;;;;17.26;23.04;102962.91;5038078;28;20461;-77
2022/03/24 07:23:47;;;;;;;44.10;25.50;;;;;;;17.53;22.02;102963.72;5036509;28;20458;-79
2022/03/24 07:26:12;;;;;;;42.72;25.08;;;;;;;16.95;23.08;102969.25;5038112;28;20060;-78
2022/03/24 07:28:38;;;;;;;45.75;25.48;;;;;;;17.34;22.53;102971.44;5037543;28;20171;-78
2022/03/24 07:31:13;;;;;;;45.25;25.60;;;;;;;17.59;21.39;102976.72;5021649;28;20056;-78
2022/03/24 07:33:38;;;;;;;56.35;26.40;;;;;;;17.48;21.79;102968.31;5040875;28;20036;-78
2022/03/24 07:36:04;;;;;;;42.92;24.60;;;;;;;17.93;22.53;102973.66;5043175;28;20372;-77
2022/03/24 07:38:29;;;;;;;44.33;25.67;;;;;;;19.07;20.66;102969.13;5022281;28;20052;-80
2022/03/24 07:40:55;;;;;;;44.15;25.10;;;;;;;19.77;19.90;102977.53;5040791;28;20020;-80
2022/03/24 07:43:21;;;;;;;41.92;23.27;;;;;;;19.33;21.37;102977.75;5038399;28;20039;-79
2022/03/24 07:45:46;;;;;;;40.25;24.60;;;;;;;19.27;20.03;102979.72;5017504;28;20047;-78
2022/03/24 07:48:16;;;;;;;40.47;23.67;;;;;;;20.07;19.70;102976.09;5024965;28;20344;-78
2022/03/24 07:50:44;;;;;;;42.50;24.77;;;;;;;20.53;18.62;102973.91;5037478;28;20036;-79
2022/03/24 07:53:13;;;;;;;37.55;24.40;;;;;;;20.97;17.58;102967.31;5015644;28;20043;-77
2022/03/24 07:55:41;;;;;;;36.35;22.83;;;;;;;20.12;19.24;102974.06;5038781;28;20032;-80
2022/03/24 07:58:12;;;;;;;41.75;24.75;;;;;;;20.33;18.98;102974.03;5017879;28;20126;-79
2022/03/24 08:00:39;;;;;;;39.72;24.50;;;;;;;20.98;18.42;102984.13;5039364;28;20150;-79
2022/03/24 08:03:09;;;;;;;45.22;24.25;;;;;;;21.21;18.00;102981.13;5037730;28;20107;-77
2022/03/24 08:05:35;;;;;;;36.60;24.03;;;;;;;21.26;18.03;102984.41;5037362;28;20036;-76
2022/03/24 08:08:00;;;;;;;40.15;23.92;;;;;;;22.50;17.84;102984.75;5039869;28;20350;-78
2022/03/24 08:10:26;;;;;;;35.78;22.88;;;;;;;22.26;16.88;102981.66;5038153;28;20037;-78
2022/03/24 08:12:52;;;;;;;42.92;25.88;;;;;;;21.83;18.04;102985.88;5039062;28;20045;-79
2022/03/24 08:15:17;;;;;;;39.78;24.42;;;;;;;21.87;17.57;102988.28;5038566;28;20033;-79
2022/03/24 08:17:44;;;;;;;44.85;25.98;;;;;;;21.87;17.48;102990.03;5039893;28;20048;-80
2022/03/24 08:20:09;;;;;;;40.78;24.40;;;;;;;21.20;18.13;102984.75;5038044;28;20029;-80
2022/03/24 08:22:35;;;;;;;37.05;24.00;;;;;;;20.50;19.13;102982.00;5037059;28;20036;-78
2022/03/24 08:25:00;;;;;;;34.97;23.58;;;;;;;20.37;19.84;102983.53;5021270;28;20067;-79
2022/03/24 08:27:26;;;;;;;37.72;25.45;;;;;;;21.45;18.55;102986.09;5037697;28;20037;-78
2022/03/24 08:29:52;;;;;;;40.22;23.45;;;;;;;22.71;17.09;102997.78;5039775;28;20587;-81
2022/03/24 08:32:18;;;;;;;50.08;25.17;;;;;;;21.90;17.53;102996.06;5040487;28;20049;-80
2022/03/24 08:34:43;;;;;;;37.35;23.83;;;;;;;22.27;17.50;102988.72;5023826;28;20051;-78
2022/03/24 08:37:09;;;;;;;40.40;22.67;;;;;;;21.86;17.08;102988.34;5042190;28;20045;-81
2022/03/24 08:39:35;;;;;;;40.45;23.63;;;;;;;21.24;18.75;102990.75;5041166;28;20060;-81
2022/03/24 08:42:03;;;;;;;38.38;22.33;;;;;;;22.29;17.36;102984.19;5025314;28;20040;-78
2022/03/24 08:44:28;;;;;;;38.05;21.20;;;;;;;22.73;17.50;102993.22;5026757;28;20025;-80
2022/03/24 08:46:54;;;;;;;37.50;22.30;;;;;;;22.12;16.87;102984.28;5046298;28;20090;-78
2022/03/24 08:49:19;;;;;;;35.53;23.00;;;;;;;21.61;18.38;102988.84;5041334;28;20020;-79
2022/03/24 08:51:45;;;;;;;41.63;22.13;;;;;;;20.77;18.38;102994.88;5041848;28;20052;-78
2022/03/24 08:54:11;;;;;;;39.17;22.83;;;;;;;20.82;18.65;102990.19;5039853;28;20040;-79
2022/03/24 08:56:36;;;;;;;34.38;21.83;;;;;;;20.31;18.85;102987.38;5020867;28;20037;-78
2022/03/24 08:59:02;;;;;;;40.90;22.33;;;;;;;20.16;19.55;102989.88;5022749;28;20603;-78
2022/03/24 09:01:28;;;;;;;42.45;23.48;;;;;;;20.11;19.70;102990.94;5025247;28;20040;-78
2022/03/24 09:03:54;;;;;;;39.08;19.88;;;;;;;19.51;19.88;102988.38;5041849;28;20087;-80
2022/03/24 09:06:21;;;;;;;43.38;22.90;;;;;;;18.83;20.28;102995.72;5024113;28;20029;-79
2022/03/24 09:08:47;;;;;;;41.85;22.73;;;;;;;18.51;20.59;103004.09;5039281;28;20040;-78
2022/03/24 09:11:13;;;;;;;34.17;20.08;;;;;;;18.55;20.41;102995.97;5040698;28;20048;-80
2022/03/24 09:13:39;;;;;;;41.85;20.85;;;;;;;19.00;19.64;102996.81;5044498;28;20462;-79
2022/03/24 09:16:06;;;;;;;34.40;20.63;;;;;;;19.15;20.32;103001.47;5045424;28;20055;-79
2022/03/24 09:18:32;;;;;;;33.47;19.95;;;;;;;19.18;19.19;102993.38;5045359;28;20041;-79
2022/03/24 09:20:58;;;;;;;32.42;19.58;;;;;;;19.06;20.11;102999.22;5041617;28;20056;-79
2022/03/24 09:23:24;;;;;;;41.28;20.90;;;;;;;19.87;18.90;103000.06;5040340;28;20071;-80
2022/03/24 09:25:50;;;;;;;37.05;20.52;;;;;;;20.00;19.02;103000.38;5023748;28;20391;-80
2022/03/24 09:28:15;;;;;;;35.55;19.83;;;;;;;19.61;19.86;102998.59;5041888;28;20061;-78
2022/03/24 09:30:42;;;;;;;40.42;21.13;;;;;;;19.65;19.50;102997.53;5041125;28;20036;-77
2022/03/24 09:33:08;;;;;;;32.25;20.10;;;;;;;19.33;20.53;102997.16;5025230;28;20043;-78
2022/03/24 09:35:35;;;;;;;38.65;19.77;;;;;;;19.45;20.03;103004.53;5019379;28;20033;-74
2022/03/24 09:38:00;;;;;;;34.97;19.70;;;;;;;19.92;19.84;102995.41;5012553;28;20091;-77
2022/03/24 09:40:26;;;;;;;33.53;18.33;;;;;;;20.34;17.88;103004.94;5044520;28;20082;-80
2022/03/24 09:42:52;;;;;;;35.78;19.73;;;;;;;20.77;18.10;102996.66;5045317;28;20058;-78
2022/03/24 09:45:19;;;;;;;35.35;19.58;;;;;;;20.57;18.87;103002.97;5040231;28;20438;-77
2022/03/24 09:47:44;;;;;;;34.75;18.40;;;;;;;20.72;18.50;102996.91;5046739;28;20490;-78
2022/03/24 09:50:12;;;;;;;29.67;18.50;;;;;;;20.37;18.29;103007.44;5047031;28;20045;-77
2022/03/24 09:52:46;;;;;;;31.63;19.65;;;;;;;20.98;17.04;103000.94;5038851;28;20520;-78
2022/03/24 09:55:14;;;;;;;29.77;17.20;;;;;;;19.88;17.73;103002.66;5023494;28;20021;-82
2022/03/24 09:57:42;;;;;;;32.30;18.65;;;;;;;19.90;18.21;103000.78;5039122;28;20200;-81
2022/03/24 10:00:08;;;;;;;37.03;17.30;;;;;;;20.10;17.97;102989.25;5021291;28;20079;-81
2022/03/24 10:02:34;;;;;;;33.53;18.65;;;;;;;20.26;17.46;102992.06;5042454;28;20108;-80
2022/03/24 10:05:01;;;;;;;37.72;18.05;;;;;;;19.72;17.31;102993.66;5034397;28;20187;-78
2022/03/24 10:07:29;;;;;;;32.15;17.92;;;;;;;19.80;17.87;103001.28;5038336;28;20462;-82
2022/03/24 10:09:56;;;;;;;33.38;17.85;;;;;;;19.76;18.76;102992.59;5036823;28;20296;-82
2022/03/24 10:12:24;;;;;;;33.88;17.88;;;;;;;19.03;18.90;102992.25;5020966;28;20033;-79
2022/03/24 10:15:03;;;;;;;31.80;18.55;;;;;;;19.94;18.18;102993.53;5036238;28;20101;-79
2022/03/24 10:17:30;;;;;;;33.33;17.75;;;;;;;19.56;18.63;102995.31;5043528;28;20498;-78
2022/03/24 10:20:17;;;;;;;29.00;16.80;;;;;;;20.72;17.16;102986.28;5037621;28;20040;-79
2022/03/24 10:22:54;;;;;;;27.42;16.58;;;;;;;20.76;16.22;102987.84;5017787;28;20063;-79
2022/03/24 10:25:23;;;;;;;35.97;18.13;;;;;;;19.19;18.07;102992.47;5040656;28;20486;-80
2022/03/24 10:28:08;;;;;;;35.70;18.17;;;;;;;20.28;17.59;102990.19;5022058;28;20056;-77
2022/03/24 10:30:49;;;;;;;31.52;19.60;;;;;;;19.69;17.96;102988.50;5029588;28;20049;-78
2022/03/24 10:33:36;;;;;;;32.20;17.83;;;;;;;19.87;17.68;102990.31;5041024;28;20052;-79
2022/03/24 10:36:17;;;;;;;32.42;16.70;;;;;;;20.91;17.18;102984.44;5044312;28;20172;-75
2022/03/24 10:38:48;;;;;;;25.20;17.93;;;;;;;20.33;16.77;102987.31;5041019;28;20048;-80
2022/03/24 10:41:21;;;;;;;30.55;18.38;;;;;;;20.23;17.27;102988.69;5016541;28;20120;-75
2022/03/24 10:43:51;;;;;;;38.25;17.20;;;;;;;20.33;17.86;102977.53;5045771;28;20147;-80
2022/03/24 10:46:22;;;;;;;26.38;17.10;;;;;;;20.25;16.89;102977.03;5037833;28;20048;-79
2022/03/24 10:48:50;;;;;;;29.27;17.55;;;;;;;21.02;17.09;102977.69;5038897;28;20044;-78
2022/03/24 10:51:26;;;;;;;35.17;17.55;;;;;;;21.43;15.87;102980.00;5040323;28;20455;-78
2022/03/24 10:53:54;;;;;;;25.83;16.35;;;;;;;21.61;15.08;102972.88;5034324;28;20451;-78
2022/03/24 10:56:52;;;;;;;24.92;16.20;;;;;;;22.13;13.91;102981.50;5038884;28;20098;-78
2022/03/24 10:59:17;;;;;;;26.65;16.77;;;;;;;21.33;14.78;102975.19;4999689;28;20438;-80
2022/03/24 11:01:45;;;;;;;31.08;18.23;;;;;;;21.76;15.99;102972.88;5042440;28;20232;-78
2022/03/24 11:04:10;;;;;;;28.88;16.27;;;;;;;21.74;16.98;102969.44;5042915;28;20045;-77
2022/03/24 11:06:36;;;;;;;28.02;17.00;;;;;;;21.00;16.34;102974.25;5025256;28;20186;-79
2022/03/24 11:09:02;;;;;;;31.35;17.92;;;;;;;21.09;15.70;102971.16;5022144;28;20640;-78
2022/03/24 11:11:29;;;;;;;30.25;17.13;;;;;;;21.07;15.60;102968.56;5024028;28;20065;-79
2022/03/24 11:13:59;;;;;;;30.02;17.45;;;;;;;21.16;16.35;102972.53;5021043;28;20037;-79
2022/03/24 11:16:30;;;;;;;29.60;16.42;;;;;;;21.32;16.40;102967.28;5040180;28;20036;-78
2022/03/24 11:18:59;;;;;;;33.13;19.33;;;;;;;20.79;16.37;102968.22;5020733;28;20094;-76